Terminal Aerodrome Forecast
Issued by NWS

Home | Current Version | Previous Version | Text Only | Print | Product List | Glossary On
Versions: 1 2 3 4 5 6 7 8 9 10 11 12 13 14 15 16 17 18 19 20 21
000
FTUS43 KSGF 210700 AAA
TAFJLN
TAF AMD
KJLN 210745Z 2108/2206 04005KT P6SM BKN012 OVC040
     FM210900 36006KT 6SM BR OVC020
      TEMPO 2109/2113 SCT007 OVC015
     FM211300 36004KT P6SM OVC015
     FM211500 01008KT P6SM OVC025
     FM211800 01008KT P6SM BKN050
     FM220100 VRB03KT P6SM SKC=

USA.gov is the U.S. government's official web portal to all federal, state and local government web resources and services.